createdAt,value
2023-02-09T00:03:58.909Z,5.51
2023-02-09T00:09:21.129Z,4.97
2023-02-09T00:14:41.296Z,6.09
2023-02-09T00:20:01.420Z,5.89
2023-02-09T00:25:26.138Z,6.67
2023-02-09T00:31:06.100Z,6.44
2023-02-09T00:36:28.346Z,6.62
2023-02-09T00:41:51.893Z,6.38
2023-02-09T00:47:15.665Z,6.05
2023-02-09T00:52:38.758Z,5.71
2023-02-09T00:58:03.739Z,5.32
2023-02-09T01:03:20.565Z,6.23
2023-02-09T01:08:40.598Z,5.34
2023-02-09T01:14:03.839Z,5.23
2023-02-09T01:19:27.492Z,5.31
2023-02-09T01:25:08.087Z,6.20
2023-02-09T01:30:30.720Z,5.37
2023-02-09T01:35:54.163Z,5.82
2023-02-09T01:41:18.314Z,5.03
2023-02-09T01:47:05.346Z,5.67
2023-02-09T01:52:25.764Z,5.38
2023-02-09T01:57:44.793Z,5.32
2023-02-09T02:03:07.221Z,4.80
2023-02-09T02:08:31.291Z,5.49
2023-02-09T02:14:18.920Z,5.79
2023-02-09T02:19:44.770Z,5.37
2023-02-09T02:25:17.444Z,5.05
2023-02-09T02:31:12.166Z,5.69
2023-02-09T02:37:17.223Z,6.10
2023-02-09T02:42:52.770Z,5.05
2023-02-09T02:48:14.278Z,6.06
2023-02-09T02:53:39.115Z,5.24
2023-02-09T02:59:00.897Z,4.97
2023-02-09T03:04:20.450Z,5.67
2023-02-09T03:09:43.535Z,5.96
2023-02-09T03:15:06.849Z,5.55
2023-02-09T03:20:29.368Z,5.60
2023-02-09T03:25:50.278Z,5.22
2023-02-09T03:31:14.930Z,5.33
2023-02-09T03:36:37.588Z,5.65
2023-02-09T03:42:01.191Z,5.70
2023-02-09T03:47:26.264Z,5.51
2023-02-09T03:52:50.146Z,5.89
2023-02-09T03:58:09.095Z,5.31
2023-02-09T04:03:30.457Z,5.20
2023-02-09T04:08:47.910Z,5.10
2023-02-09T04:14:08.756Z,5.24
2023-02-09T04:19:32.096Z,5.07
2023-02-09T04:24:55.132Z,5.47
2023-02-09T04:31:00.651Z,6.02
2023-02-09T04:36:27.289Z,6.04
2023-02-09T04:41:44.606Z,5.60
2023-02-09T04:47:05.806Z,5.63
2023-02-09T04:52:45.600Z,6.09
2023-02-09T04:58:07.033Z,5.85
2023-02-09T05:03:29.371Z,6.41
2023-02-09T05:08:53.283Z,5.70
2023-02-09T05:14:18.443Z,5.41
2023-02-09T05:19:41.982Z,6.01
2023-02-09T05:24:59.776Z,5.89
2023-02-09T05:30:24.246Z,6.19
2023-02-09T05:36:34.461Z,6.81
2023-02-09T05:41:56.521Z,5.94
2023-02-09T05:47:15.025Z,6.46
2023-02-09T05:52:33.392Z,6.14
2023-02-09T05:57:56.691Z,6.51
2023-02-09T06:03:20.218Z,5.99
2023-02-09T06:08:38.174Z,8.00
2023-02-09T06:14:00.714Z,7.55
2023-02-09T06:19:24.064Z,6.92
2023-02-09T06:24:47.017Z,6.90
2023-02-09T06:30:10.793Z,7.86
2023-02-09T06:35:34.177Z,7.34
2023-02-09T06:40:52.421Z,7.50
2023-02-09T06:46:26.022Z,10.54
2023-02-09T06:51:44.697Z,8.18
2023-02-09T06:57:02.040Z,7.24
2023-02-09T07:02:24.356Z,7.47
2023-02-09T07:07:48.190Z,8.05
2023-02-09T07:13:10.494Z,8.12
2023-02-09T07:18:34.304Z,8.85
2023-02-09T07:23:57.776Z,8.00
2023-02-09T07:29:22.408Z,7.45
2023-02-09T07:34:46.424Z,7.78
2023-02-09T07:40:08.694Z,7.57
2023-02-09T07:45:33.845Z,7.57
2023-02-09T07:50:56.942Z,7.99
2023-02-09T07:56:20.349Z,8.44
2023-02-09T08:01:42.967Z,7.16
2023-02-09T08:07:11.040Z,6.80
2023-02-09T08:12:34.840Z,6.23
2023-02-09T08:17:57.911Z,6.80
2023-02-09T08:23:20.059Z,7.68
2023-02-09T08:28:44.107Z,7.89
2023-02-09T08:34:05.875Z,7.03
2023-02-09T08:39:28.414Z,6.99
2023-02-09T08:44:48.947Z,7.79
2023-02-09T08:50:12.622Z,8.16
2023-02-09T08:55:57.729Z,8.55
2023-02-09T09:01:19.319Z,8.62
2023-02-09T09:06:39.785Z,7.63
2023-02-09T09:12:02.677Z,7.03
2023-02-09T09:17:25.936Z,7.49
2023-02-09T09:22:48.937Z,7.87
2023-02-09T09:28:12.838Z,7.49
2023-02-09T09:33:34.785Z,7.38
2023-02-09T09:38:56.726Z,7.87
2023-02-09T09:44:15.105Z,7.55
2023-02-09T09:49:34.355Z,8.20
2023-02-09T09:54:53.098Z,8.33
2023-02-09T10:00:15.725Z,7.80
2023-02-09T10:05:34.714Z,8.89
2023-02-09T10:10:56.184Z,8.52
2023-02-09T10:16:18.787Z,7.80
2023-02-09T10:21:41.015Z,8.59
2023-02-09T10:27:04.933Z,8.31
2023-02-09T10:32:27.488Z,8.36
2023-02-09T10:37:54.459Z,8.44
2023-02-09T10:43:17.261Z,8.63
2023-02-09T10:48:52.159Z,10.12
2023-02-09T10:54:15.877Z,9.49
2023-02-09T10:59:40.374Z,9.64
2023-02-09T11:05:07.345Z,9.60
2023-02-09T11:11:09.198Z,10.59
2023-02-09T11:16:30.201Z,10.06
2023-02-09T11:22:16.221Z,10.30
2023-02-09T11:27:40.093Z,10.87
2023-02-09T11:33:05.764Z,10.69
2023-02-09T11:38:29.708Z,11.06
2023-02-09T11:43:49.528Z,11.03
2023-02-09T11:49:12.090Z,11.07
2023-02-09T11:54:34.444Z,11.06
2023-02-09T11:59:58.737Z,11.48
2023-02-09T12:05:41.497Z,12.74
2023-02-09T12:10:58.886Z,11.82
2023-02-09T12:16:31.331Z,12.01
2023-02-09T12:28:00.118Z,11.66
2023-02-09T12:33:47.703Z,12.32
2023-02-09T12:39:25.688Z,12.11
2023-02-09T12:44:49.532Z,12.71
2023-02-09T12:50:12.500Z,12.18
2023-02-09T12:55:48.440Z,11.89
2023-02-09T13:07:35.707Z,12.05
2023-02-09T13:12:55.578Z,11.96
2023-02-09T13:18:21.017Z,12.07
2023-02-09T13:23:46.211Z,12.70
2023-02-09T13:29:20.362Z,13.28
2023-02-09T13:34:35.025Z,13.01
2023-02-09T13:39:58.377Z,13.06
2023-02-09T13:45:23.454Z,13.03
2023-02-09T13:50:48.440Z,12.72
2023-02-09T13:56:11.802Z,12.99
2023-02-09T14:01:33.809Z,12.26
2023-02-09T14:06:58.214Z,13.06
2023-02-09T14:12:53.150Z,13.59
2023-02-09T14:18:37.210Z,13.60
2023-02-09T14:23:58.482Z,14.68
2023-02-09T14:29:36.634Z,13.54
2023-02-09T14:35:03.277Z,13.68
2023-02-09T14:40:30.767Z,13.96
2023-02-09T14:45:56.092Z,14.22
2023-02-09T14:51:27.095Z,12.69
2023-02-09T14:56:48.390Z,13.23
2023-02-09T15:02:14.188Z,13.83
2023-02-09T15:07:37.957Z,13.76
2023-02-09T15:13:01.237Z,12.86
2023-02-09T15:18:21.888Z,12.97
2023-02-09T15:23:44.853Z,13.78
2023-02-09T15:29:09.984Z,14.05
2023-02-09T15:34:32.355Z,12.99
2023-02-09T15:39:55.450Z,12.93
2023-02-09T15:45:17.947Z,12.91
2023-02-09T15:50:44.109Z,12.67
2023-02-09T15:56:13.790Z,13.11
2023-02-09T16:01:38.346Z,12.17
2023-02-09T16:07:27.813Z,14.05
2023-02-09T16:12:49.618Z,14.56
2023-02-09T16:18:09.816Z,13.89
2023-02-09T16:23:33.301Z,14.95
2023-02-09T16:28:56.385Z,13.55
2023-02-09T16:34:44.280Z,14.61
2023-02-09T16:40:22.155Z,14.92
2023-02-09T16:45:57.276Z,14.68
2023-02-09T16:51:05.159Z,14.41
2023-02-09T16:56:29.966Z,14.51
2023-02-09T17:01:54.139Z,14.87
2023-02-09T17:07:18.620Z,14.44
2023-02-09T17:12:41.091Z,14.22
2023-02-09T17:18:04.968Z,15.38
2023-02-09T17:23:25.449Z,16.17
2023-02-09T17:28:45.820Z,17.86
2023-02-09T17:34:12.104Z,16.88
2023-02-09T17:39:52.296Z,16.42
2023-02-09T17:45:25.775Z,16.02
2023-02-09T17:50:51.184Z,18.52
2023-02-09T17:56:10.040Z,18.50
2023-02-09T18:01:32.183Z,16.69
2023-02-09T18:06:57.551Z,16.36
2023-02-09T18:12:12.286Z,15.54
2023-02-09T18:17:34.518Z,16.59
2023-02-09T18:23:01.561Z,15.57
2023-02-09T18:28:44.099Z,16.53
2023-02-09T18:34:04.980Z,15.89
2023-02-09T18:39:27.774Z,17.25
2023-02-09T18:44:49.106Z,14.96
2023-02-09T18:50:13.362Z,13.75
2023-02-09T18:55:41.207Z,14.04
2023-02-09T19:01:09.045Z,15.93
2023-02-09T19:06:32.656Z,15.77
2023-02-09T19:11:54.087Z,15.93
2023-02-09T19:17:18.039Z,15.61
2023-02-09T19:22:40.755Z,14.31
2023-02-09T19:28:05.574Z,16.21
2023-02-09T19:33:29.111Z,14.79
2023-02-09T19:38:52.753Z,15.82
2023-02-09T19:44:17.528Z,15.19
2023-02-09T19:49:41.212Z,14.78
2023-02-09T19:55:04.802Z,15.02
2023-02-09T20:00:28.401Z,14.33
2023-02-09T20:05:48.713Z,14.48
2023-02-09T20:11:34.220Z,15.68
2023-02-09T20:16:58.872Z,14.23
2023-02-09T20:22:23.512Z,14.71
2023-02-09T20:27:48.604Z,14.44
2023-02-09T20:33:12.954Z,14.53
2023-02-09T20:38:57.557Z,16.86
2023-02-09T20:44:16.129Z,16.14
2023-02-09T20:49:39.121Z,16.54
2023-02-09T20:55:01.971Z,16.15
2023-02-09T21:00:26.344Z,15.71
2023-02-09T21:06:06.954Z,16.16
2023-02-09T21:11:29.405Z,15.46
2023-02-09T21:17:11.919Z,15.90
2023-02-09T21:22:34.221Z,14.81
2023-02-09T21:27:58.818Z,14.35
2023-02-09T21:33:22.129Z,15.79
2023-02-09T21:38:44.090Z,15.32
2023-02-09T21:44:06.259Z,14.47
2023-02-09T21:49:27.859Z,21.13
2023-02-09T21:54:52.243Z,18.24
2023-02-09T22:00:35.732Z,18.83
2023-02-09T22:05:59.133Z,15.44
2023-02-09T22:11:21.917Z,14.69
2023-02-09T22:17:07.169Z,16.00
2023-02-09T22:22:29.057Z,14.22
2023-02-09T22:27:52.537Z,14.83
2023-02-09T22:33:16.396Z,14.77
2023-02-09T22:38:39.522Z,14.36
2023-02-09T22:44:00.473Z,14.31
2023-02-09T22:49:24.762Z,14.50
2023-02-09T22:54:49.038Z,14.13
2023-02-09T23:00:12.537Z,14.14
2023-02-09T23:05:36.777Z,13.60
2023-02-09T23:10:59.764Z,14.06
2023-02-09T23:16:21.787Z,14.42
2023-02-09T23:21:44.794Z,14.18
2023-02-09T23:27:04.390Z,13.99
2023-02-09T23:32:28.341Z,14.66
2023-02-09T23:37:49.792Z,13.23
2023-02-09T23:43:15.331Z,14.01
2023-02-09T23:48:56.130Z,14.78
2023-02-09T23:54:22.617Z,13.74
2023-02-09T23:59:44.831Z,13.29
